Wetterstation Oberdrees
Wetterdaten: aktuell Donnerstag, 30.11.2023 12:55
Datum Zeit Temp. A. Feuchte A. Luftdruck Regen Wind Richtung Richtung Taupunkt Windchill Windben
30.11.2023 12:55 2,7 C 96 % 1002,0 hPa 0,0 l/m 0,0 km/h (0 Bft) O 101 2,1 C 2,7 C 0,0 km/h (0 Bft)
30.11.2023 12:50 2,6 C 95 % 1002,0 hPa 0,0 l/m 0,0 km/h (0 Bft) O 101 1,9 C 2,6 C 0,0 km/h (0 Bft)
30.11.2023 12:45 2,6 C 95 % 1002,0 hPa 0,0 l/m 0,0 km/h (0 Bft) O-SO 104 1,9 C 2,6 C 0,0 km/h (0 Bft)
30.11.2023 12:40 2,6 C 95 % 1002,0 hPa 0,0 l/m 1,0 km/h (0 Bft) O-SO 104 1,9 C 2,6 C 3,2 km/h (1 Bft)
30.11.2023 12:35 2,6 C 95 % 1002,2 hPa 0,0 l/m 1,2 km/h (1 Bft) O 101 1,9 C 2,6 C 4,8 km/h (1 Bft)
30.11.2023 12:30 2,7 C 95 % 1002,1 hPa 0,0 l/m 1,9 km/h (1 Bft) O 101 2,0 C 2,7 C 4,8 km/h (1 Bft)
30.11.2023 12:25 2,7 C 96 % 1002,1 hPa 0,0 l/m 0,3 km/h (0 Bft) N 360 2,1 C 2,7 C 3,2 km/h (1 Bft)
30.11.2023 12:20 2,7 C 96 % 1002,1 hPa 0,0 l/m 0,2 km/h (0 Bft) N 360 2,1 C 2,7 C 4,8 km/h (1 Bft)
30.11.2023 12:15 2,6 C 96 % 1002,0 hPa 0,0 l/m 1,4 km/h (1 Bft) O-SO 105 2,0 C 2,6 C 6,4 km/h (2 Bft)
30.11.2023 12:10 2,5 C 96 % 1002,0 hPa 0,0 l/m 1,2 km/h (1 Bft) O-SO 103 1,9 C 2,5 C 6,4 km/h (2 Bft)
30.11.2023 12:05 2,4 C 96 % 1002,0 hPa 0,0 l/m 1,7 km/h (1 Bft) O-SO 106 1,8 C 2,4 C 4,8 km/h (1 Bft)
30.11.2023 12:00 2,4 C 96 % 1001,9 hPa 0,0 l/m 2,6 km/h (1 Bft) O-SO 111 1,8 C 2,4 C 6,4 km/h (2 Bft)
30.11.2023 11:55 2,3 C 96 % 1001,9 hPa 0,0 l/m 0,6 km/h (0 Bft) O-SO 112 1,7 C 2,3 C 3,2 km/h (1 Bft)
30.11.2023 11:50 2,2 C 96 % 1001,9 hPa 0,0 l/m 0,9 km/h (0 Bft) O-SO 115 1,6 C 2,2 C 4,8 km/h (1 Bft)
30.11.2023 11:45 2,1 C 96 % 1001,9 hPa 0,0 l/m 0,5 km/h (0 Bft) O-SO 114 1,5 C 2,1 C 3,2 km/h (1 Bft)
30.11.2023 11:40 2,1 C 96 % 1001,9 hPa 0,0 l/m 1,4 km/h (1 Bft) N 360 1,5 C 2,1 C 4,8 km/h (1 Bft)
30.11.2023 11:35 1,9 C 96 % 1001,9 hPa 0,0 l/m 1,6 km/h (1 Bft) O-SO 113 1,3 C 1,9 C 6,4 km/h (2 Bft)
30.11.2023 11:30 1,8 C 96 % 1001,8 hPa 0,0 l/m 0,7 km/h (0 Bft) O-SO 114 1,2 C 1,8 C 4,8 km/h (1 Bft)
30.11.2023 11:25 1,8 C 96 % 1002,1 hPa 0,0 l/m 1,1 km/h (1 Bft) O-SO 114 1,2 C 1,8 C 4,8 km/h (1 Bft)
30.11.2023 11:20 1,8 C 96 % 1002,2 hPa 0,0 l/m 2,1 km/h (1 Bft) O-SO 114 1,2 C 1,8 C 9,7 km/h (2 Bft)
30.11.2023 11:15 1,8 C 96 % 1002,3 hPa 0,0 l/m 1,3 km/h (1 Bft) O-SO 116 1,2 C 1,8 C 4,8 km/h (1 Bft)
30.11.2023 11:10 1,7 C 96 % 1002,3 hPa 0,0 l/m 0,9 km/h (0 Bft) O-SO 115 1,1 C 1,7 C 4,8 km/h (1 Bft)
30.11.2023 11:05 1,8 C 96 % 1002,2 hPa 0,0 l/m 0,8 km/h (0 Bft) O-SO 105 1,2 C 1,8 C 3,2 km/h (1 Bft)
30.11.2023 11:00 1,8 C 96 % 1002,3 hPa 0,0 l/m 0,7 km/h (0 Bft) O-SO 104 1,2 C 1,8 C 4,8 km/h (1 Bft)
30.11.2023 10:55 1,7 C 96 % 1002,2 hPa 0,0 l/m 0,1 km/h (0 Bft) O-SO 106 1,1 C 1,7 C 3,2 km/h (1 Bft)
30.11.2023 10:50 1,7 C 96 % 1002,3 hPa 0,0 l/m 1,2 km/h (1 Bft) O-SO 105 1,1 C 1,7 C 6,4 km/h (2 Bft)
30.11.2023 10:45 1,8 C 96 % 1002,2 hPa 0,0 l/m 1,5 km/h (1 Bft) O-SO 113 1,2 C 1,8 C 6,4 km/h (2 Bft)
30.11.2023 10:40 1,7 C 96 % 1002,2 hPa 0,0 l/m 0,8 km/h (0 Bft) O-SO 121 1,1 C 1,7 C 4,8 km/h (1 Bft)
30.11.2023 10:35 1,7 C 96 % 1002,1 hPa 0,0 l/m 1,4 km/h (1 Bft) O-SO 122 1,1 C 1,7 C 4,8 km/h (1 Bft)
30.11.2023 10:30 1,7 C 96 % 1002,2 hPa 0,0 l/m 1,4 km/h (1 Bft) O-SO 121 1,1 C 1,7 C 4,8 km/h (1 Bft)
30.11.2023 10:25 1,6 C 96 % 1002,1 hPa 0,0 l/m 0,8 km/h (0 Bft) O-SO 123 1,0 C 1,6 C 3,2 km/h (1 Bft)
30.11.2023 10:20 1,6 C 96 % 1002,2 hPa 0,2 l/m 1,3 km/h (1 Bft) O-SO 123 1,0 C 1,6 C 4,8 km/h (1 Bft)
30.11.2023 10:15 1,4 C 96 % 1002,2 hPa 0,0 l/m 0,5 km/h (0 Bft) O-SO 118 0,8 C 1,4 C 6,4 km/h (2 Bft)
30.11.2023 10:10 1,4 C 96 % 1002,2 hPa 0,0 l/m 1,8 km/h (1 Bft) O-SO 119 0,8 C 1,4 C 4,8 km/h (1 Bft)
30.11.2023 10:05 1,3 C 96 % 1002,2 hPa 0,0 l/m 0,5 km/h (0 Bft) O-SO 119 0,7 C 1,3 C 3,2 km/h (1 Bft)
30.11.2023 10:00 1,3 C 96 % 1002,2 hPa 0,0 l/m 1,1 km/h (1 Bft) O-SO 119 0,7 C 1,3 C 4,8 km/h (1 Bft)
30.11.2023 09:55 1,2 C 96 % 1002,3 hPa 0,0 l/m 0,0 km/h (0 Bft) O-SO 120 0,6 C 1,2 C 1,6 km/h (1 Bft)
30.11.2023 09:50 1,2 C 96 % 1002,4 hPa 0,0 l/m 1,2 km/h (1 Bft) O-SO 120 0,6 C 1,2 C 4,8 km/h (1 Bft)
30.11.2023 09:45 1,2 C 96 % 1002,3 hPa 0,0 l/m 1,2 km/h (1 Bft) O-SO 120 0,6 C 1,2 C 4,8 km/h (1 Bft)
30.11.2023 09:40 1,1 C 96 % 1002,3 hPa 0,0 l/m 1,9 km/h (1 Bft) O-SO 121 0,5 C 1,1 C 4,8 km/h (1 Bft)
30.11.2023 09:35 1,1 C 96 % 1002,4 hPa 0,0 l/m 1,1 km/h (1 Bft) O-SO 122 0,5 C 1,1 C 3,2 km/h (1 Bft)
30.11.2023 09:30 1,1 C 96 % 1002,3 hPa 0,2 l/m 0,8 km/h (0 Bft) O-SO 122 0,5 C 1,1 C 4,8 km/h (1 Bft)
30.11.2023 09:25 1,0 C 96 % 1002,3 hPa 0,0 l/m 0,8 km/h (0 Bft) N 360 0,4 C 1,0 C 3,2 km/h (1 Bft)
30.11.2023 09:20 1,0 C 96 % 1002,3 hPa 0,0 l/m 0,9 km/h (0 Bft) O-SO 122 0,4 C 1,0 C 3,2 km/h (1 Bft)
30.11.2023 09:15 0,9 C 96 % 1002,4 hPa 0,0 l/m 0,7 km/h (0 Bft) O-SO 122 0,3 C 0,9 C 3,2 km/h (1 Bft)
30.11.2023 09:10 0,9 C 96 % 1002,5 hPa 0,0 l/m 1,7 km/h (1 Bft) O-SO 119 0,3 C 0,9 C 4,8 km/h (1 Bft)
30.11.2023 09:05 0,9 C 96 % 1002,5 hPa 0,0 l/m 1,4 km/h (1 Bft) O-SO 119 0,3 C 0,9 C 4,8 km/h (1 Bft)
30.11.2023 09:00 0,9 C 96 % 1002,5 hPa 0,0 l/m 1,1 km/h (1 Bft) O-SO 119 0,3 C 0,9 C 3,2 km/h (1 Bft)
30.11.2023 08:55 0,9 C 96 % 1002,6 hPa 0,0 l/m 0,7 km/h (0 Bft) O-SO 119 0,3 C 0,9 C 3,2 km/h (1 Bft)
30.11.2023 08:50 0,9 C 96 % 1002,5 hPa 0,0 l/m 0,8 km/h (0 Bft) O-SO 120 0,3 C 0,9 C 3,2 km/h (1 Bft)
30.11.2023 08:45 0,9 C 96 % 1002,3 hPa 0,0 l/m 0,5 km/h (0 Bft) O-SO 118 0,3 C 0,9 C 3,2 km/h (1 Bft)
30.11.2023 08:40 0,9 C 96 % 1002,4 hPa 0,0 l/m 1,4 km/h (1 Bft) O-SO 115 0,3 C 0,9 C 4,8 km/h (1 Bft)
30.11.2023 08:35 0,8 C 96 % 1002,5 hPa 0,0 l/m 1,7 km/h (1 Bft) O-SO 114 0,2 C 0,8 C 4,8 km/h (1 Bft)
30.11.2023 08:30 0,8 C 96 % 1002,3 hPa 0,0 l/m 1,5 km/h (1 Bft) O-SO 117 0,2 C 0,8 C 3,2 km/h (1 Bft)
30.11.2023 08:25 0,8 C 96 % 1002,3 hPa 0,0 l/m 1,7 km/h (1 Bft) O-SO 117 0,2 C 0,8 C 4,8 km/h (1 Bft)
30.11.2023 08:20 0,8 C 96 % 1002,5 hPa 0,0 l/m 0,7 km/h (0 Bft) O-SO 117 0,2 C 0,8 C 3,2 km/h (1 Bft)
30.11.2023 08:15 0,8 C 96 % 1002,3 hPa 0,0 l/m 0,5 km/h (0 Bft) O-SO 117 0,2 C 0,8 C 3,2 km/h (1 Bft)
30.11.2023 08:10 0,8 C 96 % 1002,4 hPa 0,0 l/m 0,0 km/h (0 Bft) O-SO 117 0,2 C 0,8 C 0,0 km/h (0 Bft)
30.11.2023 08:05 0,8 C 96 % 1002,4 hPa 0,0 l/m 0,0 km/h (0 Bft) O-SO 118 0,2 C 0,8 C 0,0 km/h (0 Bft)
30.11.2023 08:00 0,8 C 96 % 1002,4 hPa 0,0 l/m 0,0 km/h (0 Bft) O-SO 117 0,2 C 0,8 C 0,0 km/h (0 Bft)
30.11.2023 07:55 0,8 C 96 % 1002,4 hPa 0,0 l/m 0,0 km/h (0 Bft) O-SO 119 0,2 C 0,8 C 0,0 km/h (0 Bft)
30.11.2023 07:50 0,7 C 96 % 1002,4 hPa 0,0 l/m 0,7 km/h (0 Bft) O-SO 121 0,1 C 0,7 C 3,2 km/h (1 Bft)
30.11.2023 07:45 0,7 C 96 % 1002,4 hPa 0,0 l/m 0,8 km/h (0 Bft) O-SO 121 0,1 C 0,7 C 3,2 km/h (1 Bft)
30.11.2023 07:40 0,7 C 96 % 1002,4 hPa 0,0 l/m 0,9 km/h (0 Bft) O-SO 121 0,1 C 0,7 C 3,2 km/h (1 Bft)
30.11.2023 07:35 0,7 C 96 % 1002,4 hPa 0,0 l/m 0,2 km/h (0 Bft) O-SO 122 0,1 C 0,7 C 1,6 km/h (1 Bft)
30.11.2023 07:30 0,7 C 96 % 1002,5 hPa 0,0 l/m 0,8 km/h (0 Bft) O-SO 122 0,1 C 0,7 C 3,2 km/h (1 Bft)
30.11.2023 07:25 0,7 C 96 % 1002,4 hPa 0,0 l/m 0,8 km/h (0 Bft) O-SO 123 0,1 C 0,7 C 4,8 km/h (1 Bft)
30.11.2023 07:20 0,7 C 96 % 1002,4 hPa 0,0 l/m 0,3 km/h (0 Bft) SO 125 0,1 C 0,7 C 3,2 km/h (1 Bft)
30.11.2023 07:15 0,7 C 96 % 1002,4 hPa 0,0 l/m 0,4 km/h (0 Bft) SO 126 0,1 C 0,7 C 3,2 km/h (1 Bft)
30.11.2023 07:10 0,7 C 96 % 1002,3 hPa 0,0 l/m 0,5 km/h (0 Bft) SO 126 0,1 C 0,7 C 3,2 km/h (1 Bft)
30.11.2023 07:05 0,7 C 96 % 1002,5 hPa 0,0 l/m 0,0 km/h (0 Bft) SO 126 0,1 C 0,7 C 0,0 km/h (0 Bft)
30.11.2023 07:00 0,7 C 96 % 1002,5 hPa 0,0 l/m 0,1 km/h (0 Bft) SO 126 0,1 C 0,7 C 1,6 km/h (1 Bft)
30.11.2023 06:55 0,7 C 96 % 1002,5 hPa 0,0 l/m 0,1 km/h (0 Bft) SO 127 0,1 C 0,7 C 1,6 km/h (1 Bft)
30.11.2023 06:50 0,7 C 96 % 1002,6 hPa 0,0 l/m 0,0 km/h (0 Bft) SO 127 0,1 C 0,7 C 1,6 km/h (1 Bft)
30.11.2023 06:45 0,7 C 96 % 1002,3 hPa 0,0 l/m 0,8 km/h (0 Bft) SO 127 0,1 C 0,7 C 3,2 km/h (1 Bft)
30.11.2023 06:40 0,7 C 96 % 1002,0 hPa 0,0 l/m 2,6 km/h (1 Bft) O-SO 122 0,1 C 0,7 C 9,7 km/h (2 Bft)
30.11.2023 06:35 0,7 C 96 % 1002,1 hPa 0,0 l/m 4,0 km/h (1 Bft) O 101 0,1 C 0,7 C 9,7 km/h (2 Bft)
30.11.2023 06:30 0,6 C 96 % 1002,2 hPa 0,0 l/m 0,7 km/h (0 Bft) S 191 0,0 C 0,6 C 4,8 km/h (1 Bft)
30.11.2023 06:25 0,6 C 96 % 1002,4 hPa 0,0 l/m 0,0 km/h (0 Bft) SW 235 0,0 C 0,6 C 0,0 km/h (0 Bft)
30.11.2023 06:20 0,6 C 96 % 1002,6 hPa 0,0 l/m 0,0 km/h (0 Bft) SW 236 0,0 C 0,6 C 0,0 km/h (0 Bft)
30.11.2023 06:15 0,6 C 96 % 1002,6 hPa 0,0 l/m 0,0 km/h (0 Bft) SW 236 0,0 C 0,6 C 0,0 km/h (0 Bft)
30.11.2023 06:10 0,6 C 96 % 1002,6 hPa 0,0 l/m 0,0 km/h (0 Bft) SW 236 0,0 C 0,6 C 0,0 km/h (0 Bft)
30.11.2023 06:05 0,6 C 96 % 1002,7 hPa 0,0 l/m 0,0 km/h (0 Bft) SW 236 0,0 C 0,6 C 0,0 km/h (0 Bft)
30.11.2023 06:00 0,6 C 96 % 1002,6 hPa 0,0 l/m 0,0 km/h (0 Bft) W-SW 240 0,0 C 0,6 C 0,0 km/h (0 Bft)
30.11.2023 05:55 0,6 C 96 % 1002,6 hPa 0,0 l/m 0,0 km/h (0 Bft) W-SW 242 0,0 C 0,6 C 0,0 km/h (0 Bft)
30.11.2023 05:50 0,5 C 96 % 1002,8 hPa 0,0 l/m 0,0 km/h (0 Bft) W-SW 242 -0,1 C 0,5 C 0,0 km/h (0 Bft)
30.11.2023 05:45 0,4 C 96 % 1002,8 hPa 0,0 l/m 0,0 km/h (0 Bft) W-SW 242 -0,2 C 0,4 C 0,0 km/h (0 Bft)
30.11.2023 05:40 0,4 C 96 % 1002,7 hPa 0,0 l/m 0,0 km/h (0 Bft) W-SW 242 -0,2 C 0,4 C 0,0 km/h (0 Bft)
30.11.2023 05:35 0,4 C 96 % 1002,8 hPa 0,0 l/m 0,0 km/h (0 Bft) W-SW 242 -0,2 C 0,4 C 0,0 km/h (0 Bft)
30.11.2023 05:30 0,4 C 96 % 1002,8 hPa 0,0 l/m 0,0 km/h (0 Bft) W-SW 242 -0,2 C 0,4 C 0,0 km/h (0 Bft)
30.11.2023 05:25 0,3 C 96 % 1002,8 hPa 0,0 l/m 0,0 km/h (0 Bft) W-SW 242 -0,3 C 0,3 C 0,0 km/h (0 Bft)
30.11.2023 05:20 0,4 C 96 % 1002,9 hPa 0,0 l/m 0,0 km/h (0 Bft) W-SW 242 -0,2 C 0,4 C 0,0 km/h (0 Bft)
30.11.2023 05:15 0,3 C 96 % 1002,8 hPa 0,0 l/m 0,0 km/h (0 Bft) W-SW 244 -0,3 C 0,3 C 0,0 km/h (0 Bft)
30.11.2023 05:10 0,3 C 96 % 1002,9 hPa 0,0 l/m 0,0 km/h (0 Bft) W-SW 244 -0,3 C 0,3 C 0,0 km/h (0 Bft)
30.11.2023 05:05 0,3 C 96 % 1002,9 hPa 0,0 l/m 0,2 km/h (0 Bft) W-SW 244 -0,3 C 0,3 C 1,6 km/h (1 Bft)
30.11.2023 05:00 0,3 C 96 % 1003,1 hPa 0,0 l/m 0,4 km/h (0 Bft) W-SW 244 -0,3 C 0,3 C 1,6 km/h (1 Bft)
30.11.2023 04:55 0,3 C 96 % 1002,8 hPa 0,0 l/m 0,5 km/h (0 Bft) W-SW 242 -0,3 C 0,3 C 3,2 km/h (1 Bft)
30.11.2023 04:50 0,3 C 96 % 1002,9 hPa 0,0 l/m 0,5 km/h (0 Bft) W-SW 244 -0,3 C 0,3 C 3,2 km/h (1 Bft)
30.11.2023 04:45 0,3 C 96 % 1002,9 hPa 0,0 l/m 1,3 km/h (1 Bft) W-SW 244 -0,3 C 0,3 C 4,8 km/h (1 Bft)
30.11.2023 04:40 0,2 C 96 % 1002,9 hPa 0,0 l/m 0,0 km/h (0 Bft) W-SW 243 -0,4 C 0,2 C 0,0 km/h (0 Bft)
30.11.2023 04:35 0,1 C 96 % 1002,9 hPa 0,0 l/m 0,0 km/h (0 Bft) W-SW 244 -0,5 C 0,1 C 0,0 km/h (0 Bft)
30.11.2023 04:30 0,1 C 96 % 1002,9 hPa 0,0 l/m 0,0 km/h (0 Bft) W-SW 244 -0,5 C 0,1 C 0,0 km/h (0 Bft)
30.11.2023 04:25 0,0 C 95 % 1002,9 hPa 0,0 l/m 0,0 km/h (0 Bft) W-SW 243 -0,7 C 0,0 C 0,0 km/h (0 Bft)
30.11.2023 04:20 0,0 C 95 % 1003,0 hPa 0,0 l/m 0,0 km/h (0 Bft) W-SW 243 -0,7 C 0,0 C 0,0 km/h (0 Bft)
30.11.2023 04:15 0,1 C 96 % 1003,0 hPa 0,0 l/m 0,0 km/h (0 Bft) W-SW 243 -0,5 C 0,1 C 0,0 km/h (0 Bft)
30.11.2023 04:10 0,1 C 96 % 1003,0 hPa 0,0 l/m 0,0 km/h (0 Bft) W-SW 243 -0,5 C 0,1 C 0,0 km/h (0 Bft)
30.11.2023 04:05 0,1 C 96 % 1003,1 hPa 0,0 l/m 0,0 km/h (0 Bft) W-SW 242 -0,5 C 0,1 C 0,0 km/h (0 Bft)
30.11.2023 04:00 0,1 C 96 % 1003,1 hPa 0,0 l/m 0,0 km/h (0 Bft) W-SW 242 -0,5 C 0,1 C 0,0 km/h (0 Bft)
30.11.2023 03:55 0,0 C 96 % 1003,1 hPa 0,0 l/m 0,0 km/h (0 Bft) W-SW 242 -0,6 C 0,0 C 0,0 km/h (0 Bft)
30.11.2023 03:50 -0,1 C 96 % 1003,1 hPa 0,0 l/m 0,0 km/h (0 Bft) W-SW 243 -0,7 C -0,1 C 0,0 km/h (0 Bft)
30.11.2023 03:45 -0,2 C 96 % 1003,0 hPa 0,0 l/m 0,0 km/h (0 Bft) W-SW 243 -0,8 C -0,2 C 0,0 km/h (0 Bft)
30.11.2023 03:40 -0,3 C 96 % 1003,0 hPa 0,0 l/m 0,0 km/h (0 Bft) W-SW 243 -0,9 C -0,3 C 0,0 km/h (0 Bft)
30.11.2023 03:35 -0,3 C 95 % 1003,3 hPa 0,0 l/m 0,0 km/h (0 Bft) W-SW 243 -1,0 C -0,3 C 0,0 km/h (0 Bft)
30.11.2023 03:30 -0,3 C 95 % 1003,3 hPa 0,0 l/m 0,0 km/h (0 Bft) W-SW 243 -1,0 C -0,3 C 0,0 km/h (0 Bft)
30.11.2023 03:25 -0,3 C 95 % 1003,4 hPa 0,0 l/m 0,0 km/h (0 Bft) W-SW 243 -1,0 C -0,3 C 0,0 km/h (0 Bft)
30.11.2023 03:20 -0,3 C 95 % 1003,4 hPa 0,0 l/m 0,0 km/h (0 Bft) W-SW 243 -1,0 C -0,3 C 0,0 km/h (0 Bft)
30.11.2023 03:15 -0,3 C 96 % 1003,4 hPa 0,0 l/m 0,0 km/h (0 Bft) W-SW 243 -0,9 C -0,3 C 0,0 km/h (0 Bft)
30.11.2023 03:10 -0,3 C 96 % 1003,5 hPa 0,0 l/m 0,0 km/h (0 Bft) W-SW 243 -0,9 C -0,3 C 0,0 km/h (0 Bft)
30.11.2023 03:05 -0,3 C 96 % 1003,5 hPa 0,0 l/m 0,0 km/h (0 Bft) W-SW 243 -0,9 C -0,3 C 0,0 km/h (0 Bft)
30.11.2023 03:00 -0,4 C 96 % 1003,7 hPa 0,0 l/m 0,0 km/h (0 Bft) W-SW 243 -1,0 C -0,4 C 0,0 km/h (0 Bft)
30.11.2023 02:55 -0,4 C 96 % 1003,7 hPa 0,0 l/m 0,0 km/h (0 Bft) W-SW 243 -1,0 C -0,4 C 0,0 km/h (0 Bft)
30.11.2023 02:50 -0,5 C 96 % 1003,7 hPa 0,0 l/m 0,0 km/h (0 Bft) W-SW 243 -1,1 C -0,5 C 0,0 km/h (0 Bft)
30.11.2023 02:45 -0,6 C 96 % 1003,7 hPa 0,0 l/m 0,0 km/h (0 Bft) W-SW 243 -1,2 C -0,6 C 0,0 km/h (0 Bft)
30.11.2023 02:40 -0,7 C 96 % 1003,8 hPa 0,0 l/m 0,0 km/h (0 Bft) W-SW 243 -1,3 C -0,7 C 0,0 km/h (0 Bft)
30.11.2023 02:35 -0,8 C 96 % 1003,7 hPa 0,0 l/m 0,4 km/h (0 Bft) W-SW 243 -1,4 C -0,8 C 1,6 km/h (1 Bft)
30.11.2023 02:30 -1,0 C 96 % 1003,7 hPa 0,0 l/m 0,5 km/h (0 Bft) W-SW 243 -1,6 C -1,0 C 3,2 km/h (1 Bft)
30.11.2023 02:25 -1,1 C 95 % 1003,9 hPa 0,0 l/m 0,0 km/h (0 Bft) W-SW 244 -1,8 C -1,1 C 0,0 km/h (0 Bft)
30.11.2023 02:20 -1,1 C 95 % 1004,0 hPa 0,0 l/m 0,0 km/h (0 Bft) W-SW 244 -1,8 C -1,1 C 0,0 km/h (0 Bft)
30.11.2023 02:15 -1,2 C 95 % 1004,0 hPa 0,0 l/m 0,0 km/h (0 Bft) W-SW 244 -1,9 C -1,2 C 0,0 km/h (0 Bft)
30.11.2023 02:10 -1,2 C 95 % 1004,3 hPa 0,0 l/m 0,0 km/h (0 Bft) W-SW 244 -1,9 C -1,2 C 0,0 km/h (0 Bft)
30.11.2023 02:05 -1,3 C 95 % 1004,3 hPa 0,0 l/m 0,0 km/h (0 Bft) W-SW 244 -2,0 C -1,3 C 0,0 km/h (0 Bft)
30.11.2023 02:00 -1,4 C 95 % 1004,2 hPa 0,0 l/m 0,0 km/h (0 Bft) W-SW 244 -2,1 C -1,4 C 0,0 km/h (0 Bft)
30.11.2023 01:55 -1,5 C 95 % 1004,1 hPa 0,0 l/m 0,0 km/h (0 Bft) W-SW 244 -2,2 C -1,5 C 1,6 km/h (1 Bft)
30.11.2023 01:50 -1,6 C 95 % 1004,2 hPa 0,0 l/m 0,1 km/h (0 Bft) W-SW 244 -2,3 C -1,6 C 1,6 km/h (1 Bft)
30.11.2023 01:45 -1,6 C 95 % 1004,2 hPa 0,0 l/m 0,0 km/h (0 Bft) W-SW 244 -2,3 C -1,6 C 1,6 km/h (1 Bft)
30.11.2023 01:40 -1,7 C 95 % 1004,2 hPa 0,0 l/m 0,0 km/h (0 Bft) W-SW 244 -2,4 C -1,7 C 0,0 km/h (0 Bft)
30.11.2023 01:35 -1,7 C 95 % 1004,2 hPa 0,0 l/m 0,0 km/h (0 Bft) W-SW 244 -2,4 C -1,7 C 0,0 km/h (0 Bft)
30.11.2023 01:30 -1,7 C 95 % 1004,3 hPa 0,0 l/m 0,0 km/h (0 Bft) W-SW 244 -2,4 C -1,7 C 0,0 km/h (0 Bft)
30.11.2023 01:25 -1,8 C 95 % 1004,2 hPa 0,0 l/m 0,0 km/h (0 Bft) W-SW 244 -2,5 C -1,8 C 0,0 km/h (0 Bft)
30.11.2023 01:20 -1,8 C 95 % 1004,5 hPa 0,0 l/m 0,0 km/h (0 Bft) W-SW 244 -2,5 C -1,8 C 0,0 km/h (0 Bft)
30.11.2023 01:15 -1,8 C 95 % 1004,5 hPa 0,0 l/m 0,0 km/h (0 Bft) W-SW 244 -2,5 C -1,8 C 0,0 km/h (0 Bft)
30.11.2023 01:10 -1,8 C 95 % 1004,7 hPa 0,0 l/m 0,0 km/h (0 Bft) W-SW 244 -2,5 C -1,8 C 0,0 km/h (0 Bft)
30.11.2023 01:05 -1,9 C 95 % 1004,7 hPa 0,0 l/m 0,0 km/h (0 Bft) W-SW 244 -2,6 C -1,9 C 0,0 km/h (0 Bft)
30.11.2023 01:00 -1,9 C 95 % 1004,7 hPa 0,0 l/m 0,0 km/h (0 Bft) W-SW 244 -2,6 C -1,9 C 0,0 km/h (0 Bft)
30.11.2023 00:55 -1,9 C 94 % 1004,6 hPa 0,0 l/m 0,0 km/h (0 Bft) W-SW 244 -2,7 C -1,9 C 0,0 km/h (0 Bft)
30.11.2023 00:50 -1,9 C 94 % 1004,7 hPa 0,0 l/m 0,0 km/h (0 Bft) W-SW 244 -2,7 C -1,9 C 0,0 km/h (0 Bft)
30.11.2023 00:45 -1,9 C 94 % 1004,6 hPa 0,0 l/m 0,0 km/h (0 Bft) W-SW 244 -2,7 C -1,9 C 0,0 km/h (0 Bft)
30.11.2023 00:40 -1,9 C 94 % 1004,5 hPa 0,0 l/m 0,0 km/h (0 Bft) W-SW 244 -2,7 C -1,9 C 0,0 km/h (0 Bft)
30.11.2023 00:35 -1,9 C 94 % 1004,6 hPa 0,0 l/m 0,0 km/h (0 Bft) W-SW 244 -2,7 C -1,9 C 0,0 km/h (0 Bft)
30.11.2023 00:30 -1,9 C 94 % 1004,7 hPa 0,0 l/m 0,0 km/h (0 Bft) W-SW 244 -2,7 C -1,9 C 0,0 km/h (0 Bft)
30.11.2023 00:25 -1,8 C 94 % 1004,7 hPa 0,0 l/m 0,0 km/h (0 Bft) W-SW 244 -2,6 C -1,8 C 0,0 km/h (0 Bft)
30.11.2023 00:20 -1,7 C 94 % 1004,7 hPa 0,0 l/m 0,0 km/h (0 Bft) W-SW 244 -2,5 C -1,7 C 0,0 km/h (0 Bft)
30.11.2023 00:15 -1,7 C 94 % 1004,7 hPa 0,0 l/m 0,0 km/h (0 Bft) W-SW 244 -2,5 C -1,7 C 0,0 km/h (0 Bft)
30.11.2023 00:10 -1,6 C 94 % 1004,7 hPa 0,0 l/m 0,0 km/h (0 Bft) W-SW 244 -2,4 C -1,6 C 0,0 km/h (0 Bft)
30.11.2023 00:05 -1,6 C 94 % 1004,6 hPa 0,0 l/m 0,0 km/h (0 Bft) W-SW 244 -2,4 C -1,6 C 0,0 km/h (0 Bft)
30.11.2023 00:00 -1,7 C 94 % 1004,7 hPa 0,0 l/m 0,0 km/h (0 Bft) W-SW 244 -2,5 C -1,7 C 0,0 km/h (0 Bft)
29.11.2023 23:55 -1,6 C 94 % 1004,7 hPa 0,0 l/m 0,0 km/h (0 Bft) W-SW 244 -2,4 C -1,6 C 0,0 km/h (0 Bft)
29.11.2023 23:50 -1,5 C 94 % 1004,7 hPa 0,0 l/m 0,0 km/h (0 Bft) W-SW 244 -2,3 C -1,5 C 0,0 km/h (0 Bft)
29.11.2023 23:45 -1,4 C 94 % 1004,6 hPa 0,0 l/m 0,0 km/h (0 Bft) W-SW 244 -2,2 C -1,4 C 0,0 km/h (0 Bft)
29.11.2023 23:40 -1,4 C 94 % 1004,6 hPa 0,0 l/m 0,0 km/h (0 Bft) N 0 -2,2 C -1,4 C 0,0 km/h (0 Bft)
29.11.2023 23:35 -1,4 C 94 % 1004,7 hPa 0,0 l/m 0,0 km/h (0 Bft) N 0 -2,2 C -1,4 C 0,0 km/h (0 Bft)
29.11.2023 23:30 -1,4 C 94 % 1004,8 hPa 0,0 l/m 0,0 km/h (0 Bft) N 0 -2,2 C -1,4 C 0,0 km/h (0 Bft)
29.11.2023 23:25 -1,4 C 93 % 1004,8 hPa 0,0 l/m 0,0 km/h (0 Bft) N 0 -2,4 C -1,4 C 0,0 km/h (0 Bft)
29.11.2023 23:20 -1,3 C 94 % 1004,7 hPa 0,0 l/m 0,0 km/h (0 Bft) N 0 -2,1 C -1,3 C 0,0 km/h (0 Bft)
29.11.2023 23:15 -1,2 C 94 % 1004,8 hPa 0,0 l/m 0,0 km/h (0 Bft) N 0 -2,0 C -1,2 C 0,0 km/h (0 Bft)
29.11.2023 23:10 -1,2 C 93 % 1004,8 hPa 0,0 l/m 0,0 km/h (0 Bft) N 0 -2,2 C -1,2 C 0,0 km/h (0 Bft)
29.11.2023 23:05 -1,1 C 93 % 1004,8 hPa 0,0 l/m 0,0 km/h (0 Bft) N 0 -2,1 C -1,1 C 0,0 km/h (0 Bft)
29.11.2023 23:00 -1,0 C 94 % 1004,8 hPa 0,0 l/m 0,0 km/h (0 Bft) N 0 -1,8 C -1,0 C 0,0 km/h (0 Bft)
29.11.2023 22:55 -0,9 C 94 % 1004,7 hPa 0,0 l/m 0,0 km/h (0 Bft) N 0 -1,7 C -0,9 C 0,0 km/h (0 Bft)
29.11.2023 22:50 -0,9 C 94 % 1004,7 hPa 0,0 l/m 0,0 km/h (0 Bft) N 0 -1,7 C -0,9 C 0,0 km/h (0 Bft)
29.11.2023 22:45 -0,8 C 93 % 1004,8 hPa 0,0 l/m 0,0 km/h (0 Bft) N 0 -1,8 C -0,8 C 0,0 km/h (0 Bft)
29.11.2023 22:40 -0,8 C 93 % 1004,9 hPa 0,0 l/m 0,0 km/h (0 Bft) N 0 -1,8 C -0,8 C 0,0 km/h (0 Bft)
29.11.2023 22:35 -0,7 C 94 % 1004,8 hPa 0,0 l/m 0,0 km/h (0 Bft) N 0 -1,5 C -0,7 C 0,0 km/h (0 Bft)
29.11.2023 22:30 -0,7 C 94 % 1004,9 hPa 0,0 l/m 0,0 km/h (0 Bft) N 0 -1,5 C -0,7 C 0,0 km/h (0 Bft)
29.11.2023 22:25 -0,6 C 93 % 1004,8 hPa 0,0 l/m 0,0 km/h (0 Bft) N 0 -1,6 C -0,6 C 0,0 km/h (0 Bft)
29.11.2023 22:20 -0,6 C 93 % 1005,0 hPa 0,0 l/m 0,0 km/h (0 Bft) N 0 -1,6 C -0,6 C 0,0 km/h (0 Bft)
29.11.2023 22:15 -0,5 C 93 % 1005,0 hPa 0,0 l/m 0,0 km/h (0 Bft) N 0 -1,5 C -0,5 C 0,0 km/h (0 Bft)
29.11.2023 22:10 -0,4 C 93 % 1005,1 hPa 0,0 l/m 0,0 km/h (0 Bft) N 0 -1,4 C -0,4 C 0,0 km/h (0 Bft)
29.11.2023 22:05 -0,5 C 93 % 1005,2 hPa 0,0 l/m 0,0 km/h (0 Bft) N 0 -1,5 C -0,5 C 0,0 km/h (0 Bft)
29.11.2023 22:00 -0,4 C 93 % 1005,2 hPa 0,0 l/m 0,0 km/h (0 Bft) N 0 -1,4 C -0,4 C 0,0 km/h (0 Bft)
29.11.2023 21:55 -0,3 C 93 % 1005,1 hPa 0,0 l/m 0,0 km/h (0 Bft) N 0 -1,3 C -0,3 C 0,0 km/h (0 Bft)
29.11.2023 21:50 -0,3 C 93 % 1005,2 hPa 0,0 l/m 0,0 km/h (0 Bft) N 0 -1,3 C -0,3 C 0,0 km/h (0 Bft)
29.11.2023 21:45 -0,2 C 93 % 1005,1 hPa 0,0 l/m 0,0 km/h (0 Bft) N 0 -1,2 C -0,2 C 0,0 km/h (0 Bft)
29.11.2023 21:40 -0,2 C 93 % 1005,1 hPa 0,0 l/m 0,0 km/h (0 Bft) N 0 -1,2 C -0,2 C 0,0 km/h (0 Bft)
29.11.2023 21:35 -0,1 C 93 % 1005,0 hPa 0,0 l/m 0,0 km/h (0 Bft) N 0 -1,1 C -0,1 C 0,0 km/h (0 Bft)
29.11.2023 21:30 -0,1 C 93 % 1005,0 hPa 0,0 l/m 0,0 km/h (0 Bft) N 0 -1,1 C -0,1 C 0,0 km/h (0 Bft)
29.11.2023 21:25 -0,1 C 93 % 1005,1 hPa 0,0 l/m 0,0 km/h (0 Bft) N 0 -1,1 C -0,1 C 0,0 km/h (0 Bft)
29.11.2023 21:20 0,0 C 93 % 1005,0 hPa 0,0 l/m 0,0 km/h (0 Bft) N 0 -1,0 C 0,0 C 0,0 km/h (0 Bft)
29.11.2023 21:15 0,1 C 93 % 1005,1 hPa 0,0 l/m 0,0 km/h (0 Bft) N 0 -0,9 C 0,1 C 0,0 km/h (0 Bft)
29.11.2023 21:10 0,2 C 93 % 1004,9 hPa 0,0 l/m 0,0 km/h (0 Bft) N 0 -0,8 C 0,2 C 0,0 km/h (0 Bft)
29.11.2023 21:05 0,3 C 93 % 1004,9 hPa 0,0 l/m 0,0 km/h (0 Bft) N 0 -0,7 C 0,3 C 0,0 km/h (0 Bft)
29.11.2023 21:00 0,3 C 93 % 1005,0 hPa 0,0 l/m 0,0 km/h (0 Bft) N 0 -0,7 C 0,3 C 0,0 km/h (0 Bft)
29.11.2023 20:55 0,4 C 93 % 1005,1 hPa 0,0 l/m 0,0 km/h (0 Bft) W-SW 247 -0,6 C 0,4 C 1,6 km/h (1 Bft)
29.11.2023 20:50 0,3 C 93 % 1005,1 hPa 0,0 l/m 0,0 km/h (0 Bft) N 0 -0,7 C 0,3 C 0,0 km/h (0 Bft)
29.11.2023 20:45 0,4 C 93 % 1005,0 hPa 0,0 l/m 0,0 km/h (0 Bft) W-SW 247 -0,6 C 0,4 C 1,6 km/h (1 Bft)
29.11.2023 20:40 0,4 C 93 % 1005,1 hPa 0,0 l/m 0,0 km/h (0 Bft) N 0 -0,6 C 0,4 C 0,0 km/h (0 Bft)
29.11.2023 20:35 0,5 C 93 % 1005,0 hPa 0,0 l/m 0,0 km/h (0 Bft) N 0 -0,5 C 0,5 C 0,0 km/h (0 Bft)
29.11.2023 20:30 0,4 C 93 % 1005,1 hPa 0,0 l/m 0,0 km/h (0 Bft) W-SW 247 -0,6 C 0,4 C 1,6 km/h (1 Bft)
29.11.2023 20:25 0,4 C 93 % 1005,0 hPa 0,0 l/m 0,0 km/h (0 Bft) N 0 -0,6 C 0,4 C 0,0 km/h (0 Bft)
29.11.2023 20:20 0,4 C 93 % 1005,0 hPa 0,0 l/m 0,0 km/h (0 Bft) W-SW 247 -0,6 C 0,4 C 1,6 km/h (1 Bft)
29.11.2023 20:15 0,4 C 92 % 1005,0 hPa 0,0 l/m 0,0 km/h (0 Bft) N 0 -0,7 C 0,4 C 0,0 km/h (0 Bft)
29.11.2023 20:10 0,4 C 92 % 1005,0 hPa 0,0 l/m 0,0 km/h (0 Bft) N 0 -0,7 C 0,4 C 0,0 km/h (0 Bft)
29.11.2023 20:05 0,6 C 92 % 1004,9 hPa 0,0 l/m 0,0 km/h (0 Bft) N 0 -0,5 C 0,6 C 0,0 km/h (0 Bft)
29.11.2023 20:00 0,7 C 92 % 1005,0 hPa 0,0 l/m 0,0 km/h (0 Bft) N 0 -0,4 C 0,7 C 0,0 km/h (0 Bft)
29.11.2023 19:55 0,8 C 92 % 1005,0 hPa 0,0 l/m 0,0 km/h (0 Bft) W-SW 247 -0,3 C 0,8 C 1,6 km/h (1 Bft)
29.11.2023 19:50 0,8 C 92 % 1005,1 hPa 0,0 l/m 0,0 km/h (0 Bft) W-SW 247 -0,3 C 0,8 C 1,6 km/h (1 Bft)
29.11.2023 19:45 0,8 C 92 % 1005,1 hPa 0,0 l/m 0,0 km/h (0 Bft) N 0 -0,3 C 0,8 C 0,0 km/h (0 Bft)
29.11.2023 19:40 1,0 C 92 % 1005,2 hPa 0,0 l/m 0,0 km/h (0 Bft) W-SW 247 -0,2 C 1,0 C 1,6 km/h (1 Bft)
29.11.2023 19:35 1,1 C 92 % 1005,0 hPa 0,0 l/m 0,0 km/h (0 Bft) W-SW 247 -0,1 C 1,1 C 3,2 km/h (1 Bft)
29.11.2023 19:30 1,2 C 92 % 1005,0 hPa 0,0 l/m 1,6 km/h (1 Bft) W-SW 247 0,0 C 1,2 C 4,8 km/h (1 Bft)
29.11.2023 19:25 1,3 C 92 % 1005,1 hPa 0,0 l/m 1,6 km/h (1 Bft) W-SW 247 0,1 C 1,3 C 3,2 km/h (1 Bft)
29.11.2023 19:20 1,4 C 91 % 1005,1 hPa 0,0 l/m 1,6 km/h (1 Bft) W-SW 247 0,1 C 1,4 C 3,2 km/h (1 Bft)
29.11.2023 19:15 1,6 C 91 % 1005,1 hPa 0,0 l/m 3,2 km/h (1 Bft) W-SW 247 0,3 C 1,6 C 6,4 km/h (2 Bft)
29.11.2023 19:10 1,7 C 91 % 1005,0 hPa 0,2 l/m 4,8 km/h (1 Bft) W 270 0,4 C 1,7 C 12,9 km/h (3 Bft)
29.11.2023 19:05 1,8 C 91 % 1005,3 hPa 0,0 l/m 8,0 km/h (2 Bft) W 270 0,5 C 0,2 C 17,7 km/h (3 Bft)
29.11.2023 19:00 1,8 C 91 % 1005,4 hPa 0,0 l/m 8,0 km/h (2 Bft) W 270 0,5 C 0,2 C 17,7 km/h (3 Bft)
29.11.2023 18:55 1,8 C 90 % 1005,2 hPa 0,2 l/m 6,4 km/h (2 Bft) W 270 0,3 C 1,8 C 14,5 km/h (3 Bft)
29.11.2023 18:50 1,7 C 90 % 1005,2 hPa 0,0 l/m 6,4 km/h (2 Bft) W 270 0,2 C 1,7 C 14,5 km/h (3 Bft)
29.11.2023 18:45 1,7 C 90 % 1004,9 hPa 0,0 l/m 4,8 km/h (1 Bft) SW 225 0,2 C 1,7 C 12,9 km/h (3 Bft)
29.11.2023 18:40 1,7 C 90 % 1004,9 hPa 0,0 l/m 3,2 km/h (1 Bft) W-SW 247 0,2 C 1,7 C 8,0 km/h (2 Bft)
29.11.2023 18:35 1,6 C 90 % 1004,8 hPa 0,0 l/m 4,8 km/h (1 Bft) W-SW 247 0,1 C 1,6 C 8,0 km/h (2 Bft)
29.11.2023 18:30 1,6 C 90 % 1004,8 hPa 0,0 l/m 4,8 km/h (1 Bft) W 270 0,1 C 1,6 C 12,9 km/h (3 Bft)
29.11.2023 18:25 1,5 C 90 % 1004,9 hPa 0,0 l/m 6,4 km/h (2 Bft) W 270 0,0 C 1,5 C 12,9 km/h (3 Bft)
29.11.2023 18:20 1,4 C 90 % 1004,9 hPa 0,0 l/m 4,8 km/h (1 Bft) W 270 -0,1 C 1,4 C 9,7 km/h (2 Bft)
29.11.2023 18:15 1,4 C 90 % 1004,8 hPa 0,0 l/m 4,8 km/h (1 Bft) W-SW 247 -0,1 C 1,4 C 9,7 km/h (2 Bft)
29.11.2023 18:10 1,3 C 90 % 1004,9 hPa 0,0 l/m 4,8 km/h (1 Bft) SW 225 -0,2 C 1,3 C 11,3 km/h (2 Bft)
29.11.2023 18:05 1,3 C 90 % 1004,8 hPa 0,0 l/m 3,2 km/h (1 Bft) W 270 -0,2 C 1,3 C 9,7 km/h (2 Bft)
29.11.2023 18:00 1,3 C 90 % 1004,8 hPa 0,0 l/m 3,2 km/h (1 Bft) W-SW 247 -0,2 C 1,3 C 6,4 km/h (2 Bft)
29.11.2023 17:55 1,3 C 90 % 1004,8 hPa 0,0 l/m 3,2 km/h (1 Bft) W-SW 247 -0,2 C 1,3 C 6,4 km/h (2 Bft)
29.11.2023 17:50 1,3 C 90 % 1004,8 hPa 0,0 l/m 3,2 km/h (1 Bft) SW 225 -0,2 C 1,3 C 6,4 km/h (2 Bft)
29.11.2023 17:45 1,3 C 90 % 1004,7 hPa 0,0 l/m 3,2 km/h (1 Bft) SW 225 -0,2 C 1,3 C 8,0 km/h (2 Bft)
29.11.2023 17:40 1,3 C 90 % 1004,7 hPa 0,0 l/m 3,2 km/h (1 Bft) SW 225 -0,2 C 1,3 C 8,0 km/h (2 Bft)
29.11.2023 17:35 1,3 C 90 % 1004,8 hPa 0,0 l/m 3,2 km/h (1 Bft) SW 225 -0,2 C 1,3 C 6,4 km/h (2 Bft)
29.11.2023 17:30 1,4 C 90 % 1004,8 hPa 0,0 l/m 3,2 km/h (1 Bft) SW 225 -0,1 C 1,4 C 6,4 km/h (2 Bft)
29.11.2023 17:25 1,5 C 90 % 1004,8 hPa 0,0 l/m 1,6 km/h (1 Bft) W-SW 247 0,0 C 1,5 C 4,8 km/h (1 Bft)
29.11.2023 17:20 1,5 C 90 % 1004,8 hPa 0,0 l/m 3,2 km/h (1 Bft) W-SW 247 0,0 C 1,5 C 6,4 km/h (2 Bft)
29.11.2023 17:15 1,6 C 90 % 1004,9 hPa 0,0 l/m 1,6 km/h (1 Bft) W-SW 247 0,1 C 1,6 C 4,8 km/h (1 Bft)
29.11.2023 17:10 1,7 C 90 % 1004,8 hPa 0,0 l/m 3,2 km/h (1 Bft) W-SW 247 0,2 C 1,7 C 9,7 km/h (2 Bft)
29.11.2023 17:05 1,7 C 91 % 1004,8 hPa 0,0 l/m 3,2 km/h (1 Bft) W-SW 247 0,4 C 1,7 C 8,0 km/h (2 Bft)
29.11.2023 17:00 1,7 C 91 % 1004,9 hPa 0,0 l/m 4,8 km/h (1 Bft) W-SW 247 0,4 C 1,7 C 9,7 km/h (2 Bft)
29.11.2023 16:55 1,7 C 91 % 1004,9 hPa 0,0 l/m 3,2 km/h (1 Bft) W-SW 247 0,4 C 1,7 C 12,9 km/h (3 Bft)
29.11.2023 16:50 1,7 C 91 % 1004,9 hPa 0,0 l/m 3,2 km/h (1 Bft) W-SW 247 0,4 C 1,7 C 6,4 km/h (2 Bft)
29.11.2023 16:45 1,7 C 91 % 1004,9 hPa 0,0 l/m 3,2 km/h (1 Bft) N 360 0,4 C 1,7 C 8,0 km/h (2 Bft)
29.11.2023 16:40 1,9 C 91 % 1004,8 hPa 0,0 l/m 3,2 km/h (1 Bft) N 360 0,6 C 1,9 C 6,4 km/h (2 Bft)
29.11.2023 16:35 1,9 C 92 % 1004,9 hPa 0,0 l/m 3,2 km/h (1 Bft) N 360 0,7 C 1,9 C 8,0 km/h (2 Bft)
29.11.2023 16:30 2,0 C 92 % 1004,8 hPa 0,0 l/m 3,2 km/h (1 Bft) N 360 0,8 C 2,0 C 6,4 km/h (2 Bft)
29.11.2023 16:25 2,1 C 93 % 1004,8 hPa 0,0 l/m 1,6 km/h (1 Bft) N 360 1,1 C 2,1 C 4,8 km/h (1 Bft)
29.11.2023 16:20 2,1 C 93 % 1005,0 hPa 0,0 l/m 3,2 km/h (1 Bft) N 360 1,1 C 2,1 C 6,4 km/h (2 Bft)
29.11.2023 16:15 2,1 C 93 % 1005,0 hPa 0,0 l/m 1,6 km/h (1 Bft) N 360 1,1 C 2,1 C 4,8 km/h (1 Bft)
29.11.2023 16:10 2,1 C 94 % 1005,0 hPa 0,0 l/m 3,2 km/h (1 Bft) N 360 1,2 C 2,1 C 8,0 km/h (2 Bft)
29.11.2023 16:05 2,0 C 94 % 1004,9 hPa 0,0 l/m 1,6 km/h (1 Bft) N 360 1,1 C 2,0 C 6,4 km/h (2 Bft)
29.11.2023 16:00 2,1 C 94 % 1005,0 hPa 0,0 l/m 0,0 km/h (0 Bft) N 0 1,2 C 2,1 C 0,0 km/h (0 Bft)
29.11.2023 15:55 2,0 C 94 % 1005,0 hPa 0,0 l/m 0,0 km/h (0 Bft) N 360 1,1 C 2,0 C 3,2 km/h (1 Bft)
29.11.2023 15:50 2,0 C 94 % 1005,0 hPa 0,0 l/m 1,6 km/h (1 Bft) N 360 1,1 C 2,0 C 6,4 km/h (2 Bft)
29.11.2023 15:45 1,9 C 94 % 1005,0 hPa 0,0 l/m 3,2 km/h (1 Bft) N 360 1,0 C 1,9 C 6,4 km/h (2 Bft)
29.11.2023 15:40 1,8 C 94 % 1004,9 hPa 0,0 l/m 1,6 km/h (1 Bft) N 360 0,9 C 1,8 C 3,2 km/h (1 Bft)
29.11.2023 15:35 1,8 C 93 % 1004,8 hPa 0,0 l/m 1,6 km/h (1 Bft) N 360 0,8 C 1,8 C 3,2 km/h (1 Bft)
29.11.2023 15:30 1,8 C 93 % 1004,7 hPa 0,0 l/m 0,0 km/h (0 Bft) N 0 0,8 C 1,8 C 0,0 km/h (0 Bft)
29.11.2023 15:25 1,8 C 93 % 1004,6 hPa 0,0 l/m 0,0 km/h (0 Bft) N 360 0,8 C 1,8 C 3,2 km/h (1 Bft)
29.11.2023 15:20 1,9 C 93 % 1004,7 hPa 0,0 l/m 1,6 km/h (1 Bft) N 360 0,9 C 1,9 C 4,8 km/h (1 Bft)
29.11.2023 15:15 1,9 C 93 % 1004,7 hPa 0,0 l/m 2,1 km/h (1 Bft) N 360 0,9 C 1,9 C 4,8 km/h (1 Bft)
29.11.2023 15:10 2,0 C 94 % 1004,7 hPa 0,0 l/m 2,7 km/h (1 Bft) N 360 1,1 C 2,0 C 6,4 km/h (2 Bft)
29.11.2023 15:05 2,0 C 94 % 1004,7 hPa 0,0 l/m 2,8 km/h (1 Bft) N 360 1,1 C 2,0 C 6,4 km/h (2 Bft)
29.11.2023 15:00 1,9 C 94 % 1004,8 hPa 0,0 l/m 3,0 km/h (1 Bft) N 360 1,0 C 1,9 C 6,4 km/h (2 Bft)
29.11.2023 14:55 1,9 C 93 % 1004,8 hPa 0,0 l/m 3,4 km/h (1 Bft) N 360 0,9 C 1,9 C 6,4 km/h (2 Bft)
29.11.2023 14:50 1,8 C 93 % 1004,8 hPa 0,0 l/m 4,6 km/h (1 Bft) N 360 0,8 C 1,8 C 8,0 km/h (2 Bft)
29.11.2023 14:45 1,7 C 93 % 1004,7 hPa 0,0 l/m 4,1 km/h (1 Bft) N 360 0,7 C 1,7 C 8,0 km/h (2 Bft)
29.11.2023 14:40 1,7 C 93 % 1004,8 hPa 0,0 l/m 3,8 km/h (1 Bft) N 360 0,7 C 1,7 C 8,0 km/h (2 Bft)
29.11.2023 14:35 1,6 C 93 % 1004,9 hPa 0,0 l/m 4,2 km/h (1 Bft) N 360 0,6 C 1,6 C 8,0 km/h (2 Bft)
29.11.2023 14:30 1,6 C 92 % 1004,8 hPa 0,2 l/m 4,7 km/h (1 Bft) N 360 0,4 C 1,6 C 9,7 km/h (2 Bft)
29.11.2023 14:25 1,6 C 92 % 1004,8 hPa 0,2 l/m 5,1 km/h (1 Bft) N 360 0,4 C 1,6 C 9,7 km/h (2 Bft)
29.11.2023 14:20 1,7 C 91 % 1004,8 hPa 0,0 l/m 6,1 km/h (2 Bft) N 360 0,4 C 1,7 C 9,7 km/h (2 Bft)
29.11.2023 14:15 2,1 C 90 % 1004,8 hPa 0,2 l/m 10,0 km/h (2 Bft) N 360 0,6 C -1,1 C 19,3 km/h (3 Bft)
29.11.2023 14:10 2,5 C 90 % 1004,8 hPa 0,4 l/m 5,9 km/h (2 Bft) N 360 1,0 C 2,5 C 12,9 km/h (3 Bft)
29.11.2023 14:05 2,8 C 90 % 1004,9 hPa 0,2 l/m 5,1 km/h (1 Bft) N 360 1,3 C 2,8 C 9,7 km/h (2 Bft)
29.11.2023 14:00 2,9 C 90 % 1004,8 hPa 0,0 l/m 6,5 km/h (2 Bft) N 360 1,4 C 2,8 C 12,9 km/h (3 Bft)
29.11.2023 13:55 2,9 C 90 % 1004,7 hPa 0,0 l/m 6,5 km/h (2 Bft) N 360 1,4 C 2,8 C 16,1 km/h (3 Bft)
29.11.2023 13:50 2,9 C 90 % 1004,7 hPa 0,0 l/m 6,5 km/h (2 Bft) N 360 1,4 C 2,8 C 16,1 km/h (3 Bft)
29.11.2023 13:45 2,8 C 91 % 1004,6 hPa 0,0 l/m 7,0 km/h (2 Bft) N 360 1,5 C 2,2 C 14,5 km/h (3 Bft)
29.11.2023 13:40 2,8 C 91 % 1004,7 hPa 0,0 l/m 6,1 km/h (2 Bft) N 360 1,5 C 2,8 C 14,5 km/h (3 Bft)
29.11.2023 13:35 2,8 C 91 % 1004,6 hPa 0,0 l/m 6,5 km/h (2 Bft) N 360 1,5 C 2,7 C 12,9 km/h (3 Bft)
29.11.2023 13:30 2,8 C 90 % 1004,7 hPa 0,0 l/m 7,9 km/h (2 Bft) N 360 1,3 C 1,4 C 16,1 km/h (3 Bft)
29.11.2023 13:25 2,8 C 91 % 1004,6 hPa 0,0 l/m 7,0 km/h (2 Bft) N 360 1,5 C 2,2 C 16,1 km/h (3 Bft)
29.11.2023 13:20 2,8 C 91 % 1004,6 hPa 0,0 l/m 8,1 km/h (2 Bft) N 360 1,5 C 1,2 C 14,5 km/h (3 Bft)
29.11.2023 13:15 2,8 C 91 % 1004,6 hPa 0,0 l/m 7,5 km/h (2 Bft) N 360 1,5 C 1,8 C 16,1 km/h (3 Bft)
29.11.2023 13:10 2,8 C 91 % 1004,6 hPa 0,0 l/m 7,1 km/h (2 Bft) N 360 1,5 C 2,1 C 16,1 km/h (3 Bft)
29.11.2023 13:05 2,8 C 91 % 1004,7 hPa 0,0 l/m 8,0 km/h (2 Bft) W-SW 247 1,5 C 1,3 C 14,5 km/h (3 Bft)
29.11.2023 13:00 2,8 C 91 % 1004,6 hPa 0,0 l/m 8,1 km/h (2 Bft) SW 229 1,5 C 1,2 C 16,1 km/h (3 Bft)
_ Min-Zeit 00:55 13:30 11:30 - 15:25 - - 00:30 00:30 15:30
Minimum _ -2,0 C 90 % 1001,8 hPa - 0,0 km/h (0 Bft) - - -2,7 C -1,9 C 0,0 km/h (0 Bft)
_ Max-Zeit 13:05 02:30 19:00 14:10 14:15 - - 12:20 13:50 14:15
Maximum _ 2,9 C 96 % 1005,4 hPa 0,4 l/m 10,0 km/h
N (2 Bft)
- - 2,1 C 2,8 C 19,3 km/h
N (3 Bft)
Durchschnitt _ 0,8 C 94 % 1003,9 hPa #2,0 l/m 1,9 km/h (1 Bft) W-SW - -0,0 C 0,7 C 4,6 km/h (1 Bft)
www.klaudt.eu